Time;durP1;ratioP1;P1;durP2;ratioP2;P2;SDS_P1;SDS_P2;PMS_P1;PMS_P2;Temp;Humidity;BMP_temperature;BMP_pressure;BME280_temperature;BME280_humidity;BME280_pressure;Samples;Min_cycle;Max_cycle;Signal;HPM_P1;HPM_P2
2022/10/15 00:01:33;;;;;;;59.27;32.53;;;;;;;;;;5053387;28;20449;-67
2022/10/15 00:04:01;;;;;;;61.37;32.70;;;;;;;;;;5053861;28;20473;-67
2022/10/15 00:06:29;;;;;;;71.83;35.87;;;;;;;;;;5053414;28;20450;-67
2022/10/15 00:08:56;;;;;;;66.30;34.57;;;;;;;;;;5053740;28;20460;-66
2022/10/15 00:11:25;;;;;;;62.87;33.60;;;;;;;;;;5053548;28;20541;-67
2022/10/15 00:13:53;;;;;;;67.10;34.40;;;;;;;;;;5053431;28;20481;-67
2022/10/15 00:16:22;;;;;;;61.83;34.00;;;;;;;;;;5053318;28;20934;-67
2022/10/15 00:18:50;;;;;;;66.57;34.70;;;;;;;;;;5053445;28;20448;-67
2022/10/15 00:21:18;;;;;;;58.73;33.20;;;;;;;;;;5053601;28;20505;-66
2022/10/15 00:23:47;;;;;;;60.57;32.00;;;;;;;;;;5053103;28;20484;-67
2022/10/15 00:26:16;;;;;;;65.30;35.13;;;;;;;;;;5054031;28;20807;-67
2022/10/15 00:28:43;;;;;;;59.83;33.67;;;;;;;;;;5053033;28;20454;-67
2022/10/15 00:31:11;;;;;;;64.83;33.20;;;;;;;;;;5053218;28;20449;-67
2022/10/15 00:33:39;;;;;;;73.60;34.77;;;;;;;;;;5053285;28;20493;-67
2022/10/15 00:36:07;;;;;;;64.43;32.27;;;;;;;;;;5053540;28;20855;-67
2022/10/15 00:38:35;;;;;;;78.13;35.20;;;;;;;;;;5052987;28;20949;-67
2022/10/15 00:41:04;;;;;;;70.83;33.90;;;;;;;;;;5053178;28;20445;-67
2022/10/15 00:43:42;;;;;;;72.33;34.80;;;;;;;;;;5053250;28;20450;-67
2022/10/15 00:46:16;;;;;;;76.00;35.07;;;;;;;;;;5053871;28;20881;-67
2022/10/15 00:48:44;;;;;;;72.50;35.40;;;;;;;;;;5053359;28;20428;-67
2022/10/15 00:51:11;;;;;;;77.57;36.30;;;;;;;;;;5053257;28;20443;-68
2022/10/15 00:53:38;;;;;;;69.70;33.33;;;;;;;;;;5053961;28;20831;-68
2022/10/15 00:56:07;;;;;;;68.30;33.50;;;;;;;;;;5053059;28;20450;-67
2022/10/15 00:58:35;;;;;;;78.20;36.67;;;;;;;;;;5052992;28;20450;-67
2022/10/15 01:01:02;;;;;;;85.00;34.77;;;;;;;;;;5052994;28;20453;-68
2022/10/15 01:03:29;;;;;;;86.67;36.33;;;;;;;;;;5053447;28;20449;-67
2022/10/15 01:05:56;;;;;;;88.27;36.40;;;;;;;;;;5053182;28;20444;-67
2022/10/15 01:08:23;;;;;;;74.07;33.07;;;;;;;;;;5052716;28;20449;-67
2022/10/15 01:10:54;;;;;;;82.23;33.77;;;;;;;;;;5052691;28;20443;-68
2022/10/15 01:13:27;;;;;;;76.63;35.47;;;;;;;;;;5053414;28;20439;-67
2022/10/15 01:15:57;;;;;;;74.40;34.10;;;;;;;;;;5052755;28;20925;-67
2022/10/15 01:18:25;;;;;;;82.27;34.20;;;;;;;;;;5053504;28;20439;-67
2022/10/15 01:20:59;;;;;;;85.83;36.03;;;;;;;;;;5052893;28;20437;-68
2022/10/15 01:23:47;;;;;;;82.47;34.63;;;;;;;;;;5052763;28;20445;-67
2022/10/15 01:26:23;;;;;;;70.07;34.00;;;;;;;;;;5052793;28;20433;-67
2022/10/15 01:28:58;;;;;;;80.47;35.10;;;;;;;;;;5052816;28;20436;-68
2022/10/15 01:31:30;;;;;;;96.20;35.90;;;;;;;;;;5052878;28;20430;-67
2022/10/15 01:34:02;;;;;;;87.13;33.93;;;;;;;;;;5054433;28;20940;-67
2022/10/15 01:36:33;;;;;;;76.17;35.73;;;;;;;;;;5056325;28;20450;-68
2022/10/15 01:39:02;;;;;;;83.03;33.30;;;;;;;;;;5056628;28;20436;-68
2022/10/15 01:41:31;;;;;;;89.77;37.63;;;;;;;;;;5055971;28;20447;-67
2022/10/15 01:44:01;;;;;;;93.10;37.63;;;;;;;;;;5057030;28;20531;-67
2022/10/15 01:46:32;;;;;;;87.13;36.00;;;;;;;;;;5056105;28;20449;-67
2022/10/15 01:49:01;;;;;;;75.50;33.97;;;;;;;;;;5056620;28;20454;-67
2022/10/15 01:51:28;;;;;;;83.97;33.77;;;;;;;;;;5056047;28;20443;-67
2022/10/15 01:53:56;;;;;;;89.90;36.87;;;;;;;;;;5055785;28;21011;-67
2022/10/15 01:56:25;;;;;;;83.33;36.00;;;;;;;;;;5055949;28;20438;-67
2022/10/15 01:58:53;;;;;;;84.53;34.43;;;;;;;;;;5055884;28;20960;-67
2022/10/15 02:01:21;;;;;;;84.10;36.40;;;;;;;;;;5055502;28;20967;-68
2022/10/15 02:03:50;;;;;;;79.27;34.60;;;;;;;;;;5056149;28;20478;-67
2022/10/15 02:06:21;;;;;;;84.73;35.03;;;;;;;;;;5055450;28;20463;-67
2022/10/15 02:08:56;;;;;;;90.87;35.27;;;;;;;;;;5055567;28;20911;-67
2022/10/15 02:11:23;;;;;;;81.00;36.27;;;;;;;;;;5055624;28;20915;-68
2022/10/15 02:13:52;;;;;;;88.90;37.20;;;;;;;;;;5055656;28;20483;-67
2022/10/15 02:16:23;;;;;;;95.13;36.97;;;;;;;;;;5055630;28;20445;-68
2022/10/15 02:18:57;;;;;;;90.10;35.53;;;;;;;;;;5055745;28;20768;-67
2022/10/15 02:21:27;;;;;;;92.13;35.80;;;;;;;;;;5055877;28;20438;-67
2022/10/15 02:23:57;;;;;;;82.70;36.43;;;;;;;;;;5055584;28;20473;-68
2022/10/15 02:26:26;;;;;;;90.87;36.73;;;;;;;;;;5054868;28;20475;-67
2022/10/15 02:28:55;;;;;;;83.13;34.77;;;;;;;;;;5055418;28;20444;-67
2022/10/15 02:31:23;;;;;;;80.40;36.27;;;;;;;;;;5055298;28;20499;-67
2022/10/15 02:33:53;;;;;;;79.63;35.23;;;;;;;;;;5055001;28;20443;-67
2022/10/15 02:36:20;;;;;;;69.50;35.17;;;;;;;;;;5055313;28;20451;-67
2022/10/15 02:38:48;;;;;;;73.83;34.70;;;;;;;;;;5055278;28;20794;-67
2022/10/15 02:41:16;;;;;;;76.67;32.80;;;;;;;;;;5055133;28;20454;-67
2022/10/15 02:43:43;;;;;;;71.83;34.90;;;;;;;;;;5054824;28;20460;-67
2022/10/15 02:46:12;;;;;;;79.83;35.83;;;;;;;;;;5054676;28;20942;-67
2022/10/15 02:48:39;;;;;;;75.93;35.73;;;;;;;;;;5054727;28;20444;-67
2022/10/15 02:51:08;;;;;;;74.60;34.57;;;;;;;;;;5055527;28;20807;-67
2022/10/15 02:53:35;;;;;;;73.30;34.20;;;;;;;;;;5055773;28;20457;-67
2022/10/15 02:56:02;;;;;;;82.40;34.57;;;;;;;;;;5054743;28;20492;-67
2022/10/15 02:58:29;;;;;;;78.10;34.10;;;;;;;;;;5054984;28;20441;-67
2022/10/15 03:00:57;;;;;;;82.60;36.83;;;;;;;;;;5054396;28;20969;-67
2022/10/15 03:03:24;;;;;;;85.73;35.87;;;;;;;;;;5054991;28;20458;-67
2022/10/15 03:05:51;;;;;;;92.70;40.00;;;;;;;;;;5054760;28;20794;-67
2022/10/15 03:08:19;;;;;;;90.90;38.17;;;;;;;;;;5054733;28;20490;-67
2022/10/15 03:10:47;;;;;;;94.17;37.37;;;;;;;;;;5054262;28;20812;-67
2022/10/15 03:13:14;;;;;;;91.97;36.47;;;;;;;;;;5054813;28;20812;-68
2022/10/15 03:15:41;;;;;;;90.73;36.20;;;;;;;;;;5054874;28;20474;-67
2022/10/15 03:18:09;;;;;;;94.50;38.17;;;;;;;;;;5054517;28;20442;-67
2022/10/15 03:20:36;;;;;;;75.80;33.47;;;;;;;;;;5054590;28;20454;-67
2022/10/15 03:23:03;;;;;;;72.63;32.93;;;;;;;;;;5054052;28;20940;-67
2022/10/15 03:25:32;;;;;;;82.37;34.07;;;;;;;;;;5054244;28;20478;-67
2022/10/15 03:27:59;;;;;;;80.13;34.80;;;;;;;;;;5054307;28;20805;-67
2022/10/15 03:30:26;;;;;;;86.27;35.77;;;;;;;;;;5054543;28;20453;-67
2022/10/15 03:32:53;;;;;;;74.37;33.67;;;;;;;;;;5054147;28;20446;-67
2022/10/15 03:35:21;;;;;;;70.87;31.17;;;;;;;;;;5054135;28;20487;-67
2022/10/15 03:37:48;;;;;;;72.90;34.20;;;;;;;;;;5053708;28;20453;-67
2022/10/15 03:40:15;;;;;;;69.10;34.93;;;;;;;;;;5054125;28;20455;-67
2022/10/15 03:42:43;;;;;;;81.63;32.77;;;;;;;;;;5054249;28;20444;-67
2022/10/15 03:45:11;;;;;;;82.33;33.87;;;;;;;;;;5053770;28;20458;-67
2022/10/15 03:47:38;;;;;;;70.00;33.33;;;;;;;;;;5053662;28;20442;-67
2022/10/15 03:50:06;;;;;;;89.70;34.90;;;;;;;;;;5053920;28;20449;-67
2022/10/15 03:52:33;;;;;;;93.17;35.87;;;;;;;;;;5053496;28;20537;-67
2022/10/15 03:55:00;;;;;;;110.07;33.87;;;;;;;;;;5053930;28;20478;-67
2022/10/15 03:57:27;;;;;;;135.10;39.40;;;;;;;;;;5072386;28;20450;-67
2022/10/15 03:59:56;;;;;;;99.07;34.60;;;;;;;;;;5072570;28;20448;-67
2022/10/15 04:02:23;;;;;;;92.17;35.50;;;;;;;;;;5072578;28;20794;-67
2022/10/15 04:04:52;;;;;;;99.90;38.70;;;;;;;;;;5073437;28;20532;-68
2022/10/15 04:07:20;;;;;;;91.07;36.00;;;;;;;;;;5072847;28;20457;-68
2022/10/15 04:09:47;;;;;;;94.23;36.47;;;;;;;;;;5073182;28;20456;-66
2022/10/15 04:12:15;;;;;;;79.67;34.10;;;;;;;;;;5073077;28;20940;-67
2022/10/15 04:14:42;;;;;;;88.23;36.47;;;;;;;;;;5073492;28;20489;-67
2022/10/15 04:17:10;;;;;;;94.57;35.97;;;;;;;;;;5072945;28;20454;-67
2022/10/15 04:19:37;;;;;;;73.10;32.90;;;;;;;;;;5073929;28;20448;-66
2022/10/15 04:22:05;;;;;;;85.40;34.20;;;;;;;;;;5073398;28;20450;-67
2022/10/15 04:24:32;;;;;;;76.67;33.77;;;;;;;;;;5072924;28;20493;-67
2022/10/15 04:26:59;;;;;;;85.60;35.23;;;;;;;;;;5073292;28;20441;-67
2022/10/15 04:29:26;;;;;;;87.70;35.13;;;;;;;;;;5073255;28;20453;-66
2022/10/15 04:31:53;;;;;;;98.20;36.10;;;;;;;;;;5073399;28;20448;-67
2022/10/15 04:34:22;;;;;;;102.03;36.67;;;;;;;;;;5073388;28;20446;-67
2022/10/15 04:36:49;;;;;;;90.20;36.97;;;;;;;;;;5073283;28;20457;-67
2022/10/15 04:39:16;;;;;;;90.03;35.83;;;;;;;;;;5073019;28;20452;-67
2022/10/15 04:41:43;;;;;;;112.77;38.20;;;;;;;;;;5072023;28;20449;-67
2022/10/15 04:44:11;;;;;;;114.30;37.80;;;;;;;;;;5072916;28;20442;-67
2022/10/15 04:46:38;;;;;;;105.63;37.70;;;;;;;;;;5073085;28;20450;-67
2022/10/15 04:49:06;;;;;;;96.93;39.20;;;;;;;;;;5072653;28;20443;-67
2022/10/15 04:51:34;;;;;;;117.43;38.47;;;;;;;;;;5073245;28;20437;-67
2022/10/15 04:54:02;;;;;;;129.33;39.80;;;;;;;;;;5073237;28;20444;-68
2022/10/15 04:56:29;;;;;;;122.00;39.53;;;;;;;;;;5072970;28;20484;-67
2022/10/15 04:58:56;;;;;;;100.23;36.27;;;;;;;;;;5073211;28;20461;-67
2022/10/15 05:01:23;;;;;;;82.63;35.60;;;;;;;;;;5073175;28;20444;-67
2022/10/15 05:03:50;;;;;;;88.80;36.83;;;;;;;;;;5073220;28;20450;-67
2022/10/15 05:06:19;;;;;;;99.00;37.13;;;;;;;;;;5073640;28;20454;-67
2022/10/15 05:08:48;;;;;;;83.70;34.00;;;;;;;;;;5073719;28;20455;-67
2022/10/15 05:11:16;;;;;;;100.20;35.37;;;;;;;;;;5076957;28;20480;-66
2022/10/15 05:13:43;;;;;;;88.10;36.87;;;;;;;;;;5077081;28;20445;-67
2022/10/15 05:16:14;;;;;;;85.30;34.63;;;;;;;;;;5076731;28;20473;-67
2022/10/15 05:18:42;;;;;;;87.10;37.13;;;;;;;;;;5076883;28;20426;-67
2022/10/15 05:21:10;;;;;;;104.13;35.43;;;;;;;;;;5076406;28;20536;-66
2022/10/15 05:23:37;;;;;;;94.93;36.80;;;;;;;;;;5076737;28;20473;-68
2022/10/15 05:26:09;;;;;;;108.77;37.57;;;;;;;;;;5076274;28;20442;-67
2022/10/15 05:28:36;;;;;;;111.93;37.27;;;;;;;;;;5075495;28;20440;-67
2022/10/15 05:31:04;;;;;;;93.70;36.17;;;;;;;;;;5076531;28;20453;-67
2022/10/15 05:33:32;;;;;;;121.37;39.70;;;;;;;;;;5076321;28;20442;-67
2022/10/15 05:35:59;;;;;;;99.20;42.97;;;;;;;;;;5076241;28;20495;-67
2022/10/15 05:38:26;;;;;;;103.43;40.87;;;;;;;;;;5076145;28;21027;-67
2022/10/15 05:40:53;;;;;;;94.50;39.93;;;;;;;;;;5076605;28;20810;-67
2022/10/15 05:43:22;;;;;;;118.73;41.47;;;;;;;;;;5076388;28;20449;-67
2022/10/15 05:45:49;;;;;;;110.63;40.13;;;;;;;;;;5076478;28;20445;-67
2022/10/15 05:48:16;;;;;;;171.23;45.07;;;;;;;;;;5075106;28;20462;-67
2022/10/15 05:50:43;;;;;;;132.47;41.90;;;;;;;;;;5076232;28;20448;-67
2022/10/15 05:53:11;;;;;;;122.50;41.93;;;;;;;;;;5076056;28;20456;-67
2022/10/15 05:55:38;;;;;;;115.87;41.67;;;;;;;;;;5075978;28;20477;-67
2022/10/15 05:58:05;;;;;;;135.60;42.60;;;;;;;;;;5075902;28;20869;-67
2022/10/15 06:00:34;;;;;;;145.90;40.70;;;;;;;;;;5076003;28;20835;-67
2022/10/15 06:03:01;;;;;;;136.23;43.40;;;;;;;;;;5075899;28;20433;-67
2022/10/15 06:05:28;;;;;;;131.80;43.07;;;;;;;;;;5076097;28;20445;-67
2022/10/15 06:07:57;;;;;;;127.90;43.60;;;;;;;;;;5075007;28;20453;-67
2022/10/15 06:10:24;;;;;;;153.90;46.70;;;;;;;;;;5055226;28;20448;-67
2022/10/15 06:12:51;;;;;;;130.13;45.30;;;;;;;;;;5055897;28;20456;-67
2022/10/15 06:15:18;;;;;;;132.77;44.13;;;;;;;;;;5055502;28;20483;-67
2022/10/15 06:17:47;;;;;;;142.77;47.33;;;;;;;;;;5055859;28;21090;-67
2022/10/15 06:20:14;;;;;;;121.43;43.20;;;;;;;;;;5054792;28;20451;-67
2022/10/15 06:22:41;;;;;;;127.63;43.33;;;;;;;;;;5055746;28;20450;-67
2022/10/15 06:25:09;;;;;;;140.80;49.27;;;;;;;;;;5054960;28;20561;-67
2022/10/15 06:27:36;;;;;;;131.93;47.10;;;;;;;;;;5063714;28;20447;-67
2022/10/15 06:30:04;;;;;;;126.37;48.07;;;;;;;;;;5075144;28;20440;-67
2022/10/15 06:32:31;;;;;;;138.43;46.40;;;;;;;;;;5075371;28;20439;-67
2022/10/15 06:35:00;;;;;;;128.07;45.83;;;;;;;;;;5074975;28;20457;-68
2022/10/15 06:37:29;;;;;;;130.23;46.00;;;;;;;;;;5074951;28;20453;-67
2022/10/15 06:39:56;;;;;;;154.53;50.03;;;;;;;;;;5075004;28;20444;-67
2022/10/15 06:42:23;;;;;;;152.90;49.80;;;;;;;;;;5074881;28;20448;-67
2022/10/15 06:44:50;;;;;;;135.57;47.40;;;;;;;;;;5075012;28;20818;-67
2022/10/15 06:47:18;;;;;;;145.87;52.57;;;;;;;;;;5074422;28;20449;-67
2022/10/15 06:49:45;;;;;;;139.53;45.80;;;;;;;;;;5074893;28;20442;-67
2022/10/15 06:52:13;;;;;;;143.07;48.67;;;;;;;;;;5074956;28;20450;-67
2022/10/15 06:54:40;;;;;;;123.70;48.50;;;;;;;;;;5074677;28;20448;-67
2022/10/15 06:57:08;;;;;;;148.67;51.73;;;;;;;;;;5074372;28;20480;-67
2022/10/15 06:59:35;;;;;;;148.37;52.17;;;;;;;;;;5074753;28;20442;-67
2022/10/15 07:02:02;;;;;;;154.87;52.63;;;;;;;;;;5074931;28;20877;-67
2022/10/15 07:04:29;;;;;;;139.13;50.10;;;;;;;;;;5074666;28;20446;-67
2022/10/15 07:06:57;;;;;;;158.57;53.60;;;;;;;;;;5074921;28;20465;-67
2022/10/15 07:09:25;;;;;;;156.37;52.17;;;;;;;;;;5073900;28;20970;-67
2022/10/15 07:11:53;;;;;;;146.30;53.87;;;;;;;;;;5074310;28;21001;-67
2022/10/15 07:14:20;;;;;;;171.93;55.27;;;;;;;;;;5074418;28;20486;-67
2022/10/15 07:16:47;;;;;;;154.37;53.10;;;;;;;;;;5074118;28;20479;-67
2022/10/15 07:19:14;;;;;;;149.70;49.93;;;;;;;;;;5074331;28;20829;-67
2022/10/15 07:21:41;;;;;;;146.00;51.90;;;;;;;;;;5074449;28;20449;-67
2022/10/15 07:24:09;;;;;;;143.63;54.83;;;;;;;;;;5074179;28;20470;-68
2022/10/15 07:26:37;;;;;;;129.87;50.93;;;;;;;;;;5074159;28;20438;-67
2022/10/15 07:29:05;;;;;;;113.47;50.77;;;;;;;;;;5073267;28;20440;-67
2022/10/15 07:31:32;;;;;;;114.37;49.53;;;;;;;;;;5073589;28;20774;-68
2022/10/15 07:34:00;;;;;;;108.80;47.00;;;;;;;;;;5073985;28;20453;-67
2022/10/15 07:36:27;;;;;;;100.20;46.40;;;;;;;;;;5073503;28;20490;-67
2022/10/15 07:38:54;;;;;;;105.90;47.10;;;;;;;;;;5073917;28;20867;-68
2022/10/15 07:41:22;;;;;;;98.23;45.07;;;;;;;;;;5073972;28;20530;-66
2022/10/15 07:43:52;;;;;;;86.17;42.97;;;;;;;;;;5073960;28;20858;-66
2022/10/15 07:46:19;;;;;;;91.43;44.43;;;;;;;;;;5073879;28;20442;-67
2022/10/15 07:48:46;;;;;;;87.10;42.80;;;;;;;;;;5073649;28;20447;-67
2022/10/15 07:51:13;;;;;;;91.87;46.30;;;;;;;;;;5073808;28;20449;-66
2022/10/15 07:53:42;;;;;;;75.87;40.77;;;;;;;;;;5074398;28;20452;-66
2022/10/15 07:56:11;;;;;;;91.30;42.30;;;;;;;;;;5073626;28;20548;-66
2022/10/15 07:58:39;;;;;;;75.53;39.83;;;;;;;;;;5074005;28;20447;-66
2022/10/15 08:01:08;;;;;;;76.30;41.07;;;;;;;;;;5073324;28;20442;-66
2022/10/15 08:03:36;;;;;;;85.10;42.43;;;;;;;;;;5073214;28;20447;-67
2022/10/15 08:06:04;;;;;;;77.97;40.43;;;;;;;;;;5073256;28;20554;-67
2022/10/15 08:08:31;;;;;;;69.93;40.13;;;;;;;;;;5072985;28;20451;-67
2022/10/15 08:10:59;;;;;;;74.50;42.40;;;;;;;;;;5073145;28;20492;-67
2022/10/15 08:13:26;;;;;;;71.50;40.40;;;;;;;;;;5072664;28;20447;-67
2022/10/15 08:15:53;;;;;;;75.27;40.70;;;;;;;;;;5073411;28;20484;-67
2022/10/15 08:18:22;;;;;;;70.27;40.83;;;;;;;;;;5073212;28;20441;-67
2022/10/15 08:20:49;;;;;;;73.27;43.27;;;;;;;;;;5073457;28;20554;-67
2022/10/15 08:23:17;;;;;;;70.20;39.60;;;;;;;;;;5073443;28;20449;-66
2022/10/15 08:25:44;;;;;;;64.90;37.20;;;;;;;;;;5073864;28;20476;-67
2022/10/15 08:28:12;;;;;;;64.60;37.47;;;;;;;;;;5073132;28;20509;-67
2022/10/15 08:30:39;;;;;;;58.80;36.63;;;;;;;;;;5073220;28;20455;-67
2022/10/15 08:33:06;;;;;;;65.20;38.50;;;;;;;;;;5072777;28;20440;-67
2022/10/15 08:35:37;;;;;;;61.17;36.70;;;;;;;;;;5073055;28;20483;-67
2022/10/15 08:38:05;;;;;;;52.33;35.47;;;;;;;;;;5073767;28;20427;-67
2022/10/15 08:40:32;;;;;;;58.43;37.20;;;;;;;;;;5073313;28;20862;-67
2022/10/15 08:42:59;;;;;;;51.87;34.63;;;;;;;;;;5075455;28;20528;-67
2022/10/15 08:45:29;;;;;;;52.87;33.80;;;;;;;;;;5077441;28;20451;-67
2022/10/15 08:47:58;;;;;;;51.30;34.07;;;;;;;;;;5077204;28;20534;-67
2022/10/15 08:50:28;;;;;;;55.50;35.30;;;;;;;;;;5077037;28;20449;-67
2022/10/15 08:53:00;;;;;;;53.83;33.57;;;;;;;;;;5077000;28;20440;-67
2022/10/15 08:55:30;;;;;;;55.27;33.37;;;;;;;;;;5077042;28;20492;-67
2022/10/15 08:58:00;;;;;;;46.63;32.00;;;;;;;;;;5077308;28;20476;-67
2022/10/15 09:00:31;;;;;;;42.30;30.23;;;;;;;;;;5077359;28;20426;-66
2022/10/15 09:03:01;;;;;;;46.10;33.90;;;;;;;;;;5077127;28;20444;-67
2022/10/15 09:05:36;;;;;;;47.03;30.33;;;;;;;;;;5077937;28;20491;-67
2022/10/15 09:08:09;;;;;;;49.73;31.03;;;;;;;;;;5077223;28;20445;-67
2022/10/15 09:10:39;;;;;;;40.30;29.90;;;;;;;;;;5076876;28;20486;-67
2022/10/15 09:13:10;;;;;;;41.87;29.97;;;;;;;;;;5076845;28;20446;-67
2022/10/15 09:15:41;;;;;;;40.47;30.20;;;;;;;;;;5076488;28;20469;-66
2022/10/15 09:18:12;;;;;;;37.07;28.20;;;;;;;;;;5076840;28;20832;-67
2022/10/15 09:20:39;;;;;;;35.93;27.10;;;;;;;;;;5076674;28;20433;-66
2022/10/15 09:23:13;;;;;;;66.67;29.80;;;;;;;;;;5076671;28;20438;-67
2022/10/15 09:25:43;;;;;;;43.27;27.30;;;;;;;;;;5077218;28;20519;-66
2022/10/15 09:28:11;;;;;;;45.77;25.90;;;;;;;;;;5076147;28;20451;-67
2022/10/15 09:30:43;;;;;;;34.97;25.40;;;;;;;;;;5076408;28;20449;-67
2022/10/15 09:33:16;;;;;;;31.13;24.10;;;;;;;;;;5076113;28;20464;-67
2022/10/15 09:35:45;;;;;;;33.83;24.47;;;;;;;;;;5076172;28;20828;-67
2022/10/15 09:38:18;;;;;;;30.60;24.03;;;;;;;;;;5076417;28;20475;-67
2022/10/15 09:40:53;;;;;;;33.50;24.33;;;;;;;;;;5076393;28;20436;-66
2022/10/15 09:43:26;;;;;;;32.50;25.90;;;;;;;;;;5076316;28;20438;-66
2022/10/15 09:45:54;;;;;;;35.23;25.77;;;;;;;;;;5076439;28;20497;-67
2022/10/15 09:48:21;;;;;;;31.87;26.03;;;;;;;;;;5075661;28;20504;-66
2022/10/15 09:50:56;;;;;;;35.07;26.50;;;;;;;;;;5075831;28;20444;-67
2022/10/15 09:53:27;;;;;;;36.47;25.50;;;;;;;;;;5075439;28;20437;-67
2022/10/15 09:55:56;;;;;;;34.67;25.60;;;;;;;;;;5074970;28;20897;-67
2022/10/15 09:58:24;;;;;;;31.93;24.83;;;;;;;;;;5075512;28;20932;-67
2022/10/15 10:00:59;;;;;;;28.93;21.87;;;;;;;;;;5076022;28;20443;-67
2022/10/15 10:03:27;;;;;;;27.00;22.40;;;;;;;;;;5076029;28;20432;-67
2022/10/15 10:05:59;;;;;;;31.27;18.97;;;;;;;;;;5075871;28;20454;-67
2022/10/15 10:08:29;;;;;;;25.63;20.03;;;;;;;;;;5075830;28;20424;-67
2022/10/15 10:11:04;;;;;;;25.13;19.77;;;;;;;;;;5075639;28;20440;-67
2022/10/15 10:13:33;;;;;;;20.87;18.10;;;;;;;;;;5075027;28;20459;-67
2022/10/15 10:16:03;;;;;;;23.33;18.67;;;;;;;;;;5075168;28;20446;-67
2022/10/15 10:18:31;;;;;;;19.63;16.37;;;;;;;;;;5075558;28;20448;-67
2022/10/15 10:20:59;;;;;;;21.43;17.50;;;;;;;;;;5075670;28;20473;-67
2022/10/15 10:23:30;;;;;;;20.70;18.13;;;;;;;;;;5075107;28;20996;-67
2022/10/15 10:25:59;;;;;;;22.77;17.60;;;;;;;;;;5076030;28;20430;-66
2022/10/15 10:28:28;;;;;;;19.50;17.03;;;;;;;;;;5075114;28;20448;-67
2022/10/15 10:31:02;;;;;;;18.63;16.20;;;;;;;;;;5075392;28;20440;-67
2022/10/15 10:33:31;;;;;;;18.23;15.63;;;;;;;;;;5075667;28;20433;-66
2022/10/15 10:35:59;;;;;;;20.07;17.07;;;;;;;;;;5075349;28;20922;-67
2022/10/15 10:38:27;;;;;;;19.37;17.37;;;;;;;;;;5074992;28;20992;-67
2022/10/15 10:40:57;;;;;;;17.60;15.70;;;;;;;;;;5075425;28;20446;-67
2022/10/15 10:43:27;;;;;;;20.87;16.50;;;;;;;;;;5074921;28;20529;-66
2022/10/15 10:45:55;;;;;;;14.87;13.30;;;;;;;;;;5075156;28;20529;-67
2022/10/15 10:48:23;;;;;;;15.67;12.77;;;;;;;;;;5074770;28;20443;-67
2022/10/15 10:51:02;;;;;;;13.13;11.83;;;;;;;;;;5074746;28;20451;-67
2022/10/15 10:53:29;;;;;;;13.73;11.40;;;;;;;;;;5075275;28;20793;-67
2022/10/15 10:55:57;;;;;;;14.03;12.53;;;;;;;;;;5075014;28;20445;-67
2022/10/15 10:58:24;;;;;;;13.00;11.00;;;;;;;;;;5075075;28;20478;-67
2022/10/15 11:00:54;;;;;;;11.80;10.60;;;;;;;;;;5074727;28;20444;-67
2022/10/15 11:03:23;;;;;;;12.90;11.67;;;;;;;;;;5074393;28;20454;-70
2022/10/15 11:05:51;;;;;;;10.73;9.63;;;;;;;;;;5074551;28;20478;-67
2022/10/15 11:08:22;;;;;;;11.17;10.07;;;;;;;;;;5074403;28;20939;-67
2022/10/15 11:10:52;;;;;;;10.20;9.20;;;;;;;;;;5075433;28;20434;-67
2022/10/15 11:13:37;;;;;;;9.60;8.70;;;;;;;;;;5074261;28;20480;-67
2022/10/15 11:16:08;;;;;;;13.07;9.20;;;;;;;;;;5064557;28;21047;-67
2022/10/15 11:18:43;;;;;;;9.27;8.37;;;;;;;;;;5074742;28;20477;-67
2022/10/15 11:21:15;;;;;;;8.60;7.70;;;;;;;;;;5074227;28;20440;-67
2022/10/15 11:23:48;;;;;;;8.37;7.50;;;;;;;;;;5074346;28;20435;-67
2022/10/15 11:26:24;;;;;;;9.70;8.77;;;;;;;;;;5074846;28;20433;-67
2022/10/15 11:28:58;;;;;;;6.60;6.03;;;;;;;;;;5074276;28;20526;-67
2022/10/15 11:31:31;;;;;;;8.07;7.30;;;;;;;;;;5074254;28;20459;-68
2022/10/15 11:34:06;;;;;;;7.27;6.67;;;;;;;;;;5074495;28;20428;-67
2022/10/15 11:36:37;;;;;;;6.63;6.03;;;;;;;;;;5075163;28;20451;-66
2022/10/15 11:39:12;;;;;;;6.73;5.97;;;;;;;;;;5074223;28;20445;-67
2022/10/15 11:41:44;;;;;;;8.43;5.70;;;;;;;;;;5074815;28;20442;-69
2022/10/15 11:44:25;;;;;;;6.57;5.97;;;;;;;;;;5073978;28;20432;-67
2022/10/15 11:47:01;;;;;;;10.23;5.30;;;;;;;;;;5073541;28;20939;-68
2022/10/15 11:49:33;;;;;;;6.00;5.43;;;;;;;;;;5074033;28;20451;-67
2022/10/15 11:52:09;;;;;;;4.20;3.80;;;;;;;;;;5073960;28;20431;-67
2022/10/15 11:54:37;;;;;;;4.30;3.80;;;;;;;;;;5073898;28;20434;-67
2022/10/15 11:57:05;;;;;;;4.73;3.87;;;;;;;;;;5073602;28;20567;-67
2022/10/15 11:59:35;;;;;;;3.17;2.97;;;;;;;;;;5073857;28;20533;-67
2022/10/15 12:02:05;;;;;;;3.30;3.00;;;;;;;;;;5073815;28;20466;-67
2022/10/15 12:04:38;;;;;;;3.73;2.90;;;;;;;;;;5073582;28;20775;-67
2022/10/15 12:07:07;;;;;;;5.93;3.10;;;;;;;;;;5073803;28;20854;-67
2022/10/15 12:09:37;;;;;;;3.43;3.13;;;;;;;;;;5072865;28;20448;-67
2022/10/15 12:12:09;;;;;;;3.70;3.23;;;;;;;;;;5072270;28;20447;-67
2022/10/15 12:14:39;;;;;;;3.07;2.87;;;;;;;;;;5072904;28;20437;-67
2022/10/15 12:17:12;;;;;;;3.00;2.80;;;;;;;;;;5072148;28;20502;-68
2022/10/15 12:19:42;;;;;;;2.90;2.70;;;;;;;;;;5073080;28;20435;-68
2022/10/15 12:22:11;;;;;;;4.63;3.00;;;;;;;;;;5073399;28;20427;-67
2022/10/15 12:24:52;;;;;;;3.00;2.80;;;;;;;;;;5073373;28;20472;-67
2022/10/15 12:27:34;;;;;;;2.37;2.27;;;;;;;;;;5073488;28;20459;-67
2022/10/15 12:30:20;;;;;;;2.80;2.60;;;;;;;;;;5071520;28;20797;-68
2022/10/15 12:32:49;;;;;;;2.87;2.67;;;;;;;;;;5073192;28;20440;-68
2022/10/15 12:35:35;;;;;;;5.80;2.20;;;;;;;;;;5072987;28;20961;-66
2022/10/15 12:38:13;;;;;;;4.77;2.57;;;;;;;;;;5073768;28;20475;-68
2022/10/15 12:40:40;;;;;;;3.27;3.03;;;;;;;;;;5073146;28;20446;-68
2022/10/15 12:43:13;;;;;;;7.90;7.20;;;;;;;;;;5072509;28;20443;-68
2022/10/15 12:45:41;;;;;;;3.90;3.60;;;;;;;;;;5073336;28;20436;-67
2022/10/15 12:48:29;;;;;;;3.53;2.63;;;;;;;;;;5073207;28;20451;-67
2022/10/15 12:51:11;;;;;;;2.50;2.30;;;;;;;;;;5073447;28;20431;-67
2022/10/15 12:53:42;;;;;;;3.20;3.00;;;;;;;;;;5072805;28;20451;-67
2022/10/15 12:56:13;;;;;;;2.80;2.60;;;;;;;;;;5073141;28;20518;-67
2022/10/15 12:58:41;;;;;;;9.03;6.40;;;;;;;;;;5072950;28;20485;-67
2022/10/15 13:01:28;;;;;;;3.50;3.20;;;;;;;;;;5072795;28;20939;-68
2022/10/15 13:03:57;;;;;;;3.50;2.70;;;;;;;;;;5072843;28;20437;-67
2022/10/15 13:06:26;;;;;;;22.20;12.87;;;;;;;;;;5073433;28;20455;-68
2022/10/15 13:08:55;;;;;;;7.57;6.43;;;;;;;;;;5072666;28;20456;-67
2022/10/15 13:11:24;;;;;;;5.33;3.13;;;;;;;;;;5072701;28;20445;-67
2022/10/15 13:13:53;;;;;;;3.63;3.33;;;;;;;;;;5073036;28;20546;-67
2022/10/15 13:16:21;;;;;;;2.90;2.70;;;;;;;;;;5072936;28;20458;-68
2022/10/15 13:18:50;;;;;;;5.33;2.50;;;;;;;;;;5072665;28;20821;-68
2022/10/15 13:21:18;;;;;;;3.27;2.97;;;;;;;;;;5072939;28;20442;-68
2022/10/15 13:23:46;;;;;;;3.30;3.10;;;;;;;;;;5072522;28;20474;-68
2022/10/15 13:26:17;;;;;;;2.90;2.70;;;;;;;;;;5072982;28;20440;-68
2022/10/15 13:28:45;;;;;;;4.13;3.10;;;;;;;;;;5072642;28;20435;-68
2022/10/15 13:31:15;;;;;;;3.80;3.50;;;;;;;;;;5076204;28;20851;-68
2022/10/15 13:33:44;;;;;;;3.53;3.23;;;;;;;;;;5076075;28;20475;-68
2022/10/15 13:36:17;;;;;;;5.43;3.53;;;;;;;;;;5075995;28;20454;-68
2022/10/15 13:38:52;;;;;;;4.03;3.30;;;;;;;;;;5076879;28;20565;-69
2022/10/15 13:41:23;;;;;;;3.60;3.40;;;;;;;;;;5076009;28;20516;-69
2022/10/15 13:43:53;;;;;;;3.20;3.00;;;;;;;;;;5075820;28;20435;-69
2022/10/15 13:46:23;;;;;;;4.00;3.60;;;;;;;;;;5075932;28;20434;-69
2022/10/15 13:48:50;;;;;;;4.20;3.83;;;;;;;;;;5076120;28;20454;-67
2022/10/15 13:51:18;;;;;;;3.70;3.40;;;;;;;;;;5076102;28;20448;-67
2022/10/15 13:53:46;;;;;;;5.77;3.50;;;;;;;;;;5075766;28;20449;-71
2022/10/15 13:56:21;;;;;;;4.00;3.70;;;;;;;;;;5075920;28;20454;-70
2022/10/15 13:58:48;;;;;;;3.97;3.67;;;;;;;;;;5075851;28;20471;-69
2022/10/15 14:01:17;;;;;;;5.00;3.47;;;;;;;;;;5075928;28;20455;-69
2022/10/15 14:03:48;;;;;;;3.77;3.53;;;;;;;;;;5076880;28;20443;-67
2022/10/15 14:06:17;;;;;;;4.90;3.87;;;;;;;;;;5076247;28;20446;-68
2022/10/15 14:08:45;;;;;;;4.07;3.67;;;;;;;;;;5076054;28;20448;-68
2022/10/15 14:11:14;;;;;;;3.97;3.67;;;;;;;;;;5075469;28;20451;-68
2022/10/15 14:13:45;;;;;;;3.37;3.17;;;;;;;;;;5076361;28;20941;-68
2022/10/15 14:16:14;;;;;;;3.47;3.17;;;;;;;;;;5075861;28;20442;-68
2022/10/15 14:18:42;;;;;;;3.57;3.20;;;;;;;;;;5075637;28;20479;-68
2022/10/15 14:21:13;;;;;;;3.40;3.10;;;;;;;;;;5075430;28;20530;-68
2022/10/15 14:23:41;;;;;;;4.00;3.30;;;;;;;;;;5075550;28;20792;-68
2022/10/15 14:26:09;;;;;;;3.50;3.00;;;;;;;;;;5075819;28;20431;-69
2022/10/15 14:28:38;;;;;;;3.17;2.97;;;;;;;;;;5075801;28;20451;-68
2022/10/15 14:31:06;;;;;;;3.63;3.23;;;;;;;;;;5075401;28;20451;-68
2022/10/15 14:33:44;;;;;;;3.00;2.80;;;;;;;;;;5075145;28;20450;-68